createdAt,value
2019-01-29T00:00:39.334Z,73.81
2019-01-29T00:01:21.541Z,73.56
2019-01-29T00:01:57.259Z,73.46
2019-01-29T00:02:32.630Z,73.54
2019-01-29T00:03:08.533Z,73.48
2019-01-29T00:03:44.034Z,73.56
2019-01-29T00:04:19.452Z,73.67
2019-01-29T00:04:55.145Z,73.80
2019-01-29T00:05:30.558Z,73.54
2019-01-29T00:06:08.801Z,73.15
2019-01-29T00:06:43.897Z,73.21
2019-01-29T00:07:19.309Z,73.13
2019-01-29T00:07:54.740Z,73.06
2019-01-29T00:08:30.416Z,73.11
2019-01-29T00:09:09.518Z,73.29
2019-01-29T00:09:45.190Z,73.32
2019-01-29T00:10:20.564Z,73.41
2019-01-29T00:10:55.966Z,73.48
2019-01-29T00:11:31.358Z,73.67
2019-01-29T00:12:07.119Z,73.53
2019-01-29T00:12:42.508Z,73.50
2019-01-29T00:13:18.166Z,73.54
2019-01-29T00:13:53.840Z,73.62
2019-01-29T00:14:29.491Z,73.72
2019-01-29T00:15:05.614Z,73.91
2019-01-29T00:15:41.295Z,73.76
2019-01-29T00:16:17.033Z,73.67
2019-01-29T00:16:52.531Z,73.89
2019-01-29T00:17:28.275Z,74.12
2019-01-29T00:18:03.883Z,74.29
2019-01-29T00:18:39.340Z,74.43
2019-01-29T00:19:14.742Z,74.53
2019-01-29T00:19:50.121Z,74.60
2019-01-29T00:20:25.526Z,74.72
2019-01-29T00:21:00.910Z,74.33
2019-01-29T00:21:36.363Z,74.09
2019-01-29T00:22:11.811Z,74.15
2019-01-29T00:22:47.480Z,73.93
2019-01-29T00:23:23.144Z,73.94
2019-01-29T00:23:58.534Z,73.97
2019-01-29T00:24:33.924Z,74.15
2019-01-29T00:25:09.475Z,74.10
2019-01-29T00:25:45.147Z,73.95
2019-01-29T00:26:20.781Z,74.16
2019-01-29T00:26:56.205Z,74.15
2019-01-29T00:27:31.618Z,74.33
2019-01-29T00:28:07.160Z,74.45
2019-01-29T00:28:42.593Z,74.37
2019-01-29T00:29:18.242Z,74.19
2019-01-29T00:29:53.658Z,74.37
2019-01-29T00:30:29.045Z,74.28
2019-01-29T00:31:04.431Z,74.50
2019-01-29T00:31:39.860Z,74.62
2019-01-29T00:32:15.274Z,74.87
2019-01-29T00:32:50.652Z,75.18
2019-01-29T00:33:26.342Z,75.34
2019-01-29T00:34:01.720Z,75.68
2019-01-29T00:34:37.201Z,75.82
2019-01-29T00:35:13.001Z,75.66
2019-01-29T00:35:48.667Z,75.50
2019-01-29T00:36:24.057Z,75.59
2019-01-29T00:36:59.451Z,75.68
2019-01-29T00:37:35.284Z,75.69
2019-01-29T00:38:10.996Z,75.93
2019-01-29T00:38:46.383Z,76.24
2019-01-29T00:39:22.026Z,76.40
2019-01-29T00:39:57.415Z,76.74
2019-01-29T00:40:33.056Z,76.62
2019-01-29T00:41:08.585Z,76.30
2019-01-29T00:41:44.021Z,76.25
2019-01-29T00:42:19.446Z,76.52
2019-01-29T00:42:54.823Z,76.84
2019-01-29T00:43:30.252Z,77.03
2019-01-29T00:44:06.059Z,77.16
2019-01-29T00:44:41.769Z,77.25
2019-01-29T00:45:17.300Z,77.21
2019-01-29T00:45:52.927Z,76.70
2019-01-29T00:46:28.323Z,76.58
2019-01-29T00:47:03.990Z,76.66
2019-01-29T00:47:39.535Z,76.93
2019-01-29T00:48:15.020Z,77.11
2019-01-29T00:48:50.404Z,77.32
2019-01-29T00:49:26.175Z,77.47
2019-01-29T00:50:01.820Z,77.55
2019-01-29T00:50:37.299Z,77.34
2019-01-29T00:51:12.754Z,77.15
2019-01-29T00:51:48.379Z,77.20
2019-01-29T00:52:24.029Z,77.36
2019-01-29T00:52:59.663Z,77.38
2019-01-29T00:53:35.466Z,77.36
2019-01-29T00:54:10.917Z,77.33
2019-01-29T00:54:46.557Z,77.34
2019-01-29T00:55:21.928Z,77.23
2019-01-29T00:55:57.300Z,77.15
2019-01-29T00:56:32.702Z,77.17
2019-01-29T00:57:08.378Z,77.19
2019-01-29T00:57:44.075Z,77.10
2019-01-29T00:58:19.451Z,77.17
2019-01-29T00:58:54.824Z,77.18
2019-01-29T00:59:30.222Z,77.16
2019-01-29T01:00:08.226Z,76.90
2019-01-29T01:00:43.704Z,77.12
2019-01-29T01:01:19.134Z,77.19
2019-01-29T01:01:54.858Z,77.20
2019-01-29T01:02:30.265Z,77.15
2019-01-29T01:03:05.939Z,77.20
2019-01-29T01:03:41.352Z,77.37
2019-01-29T01:04:16.744Z,77.51
2019-01-29T01:04:52.254Z,77.63
2019-01-29T01:05:27.885Z,77.71
2019-01-29T01:06:03.277Z,77.72
2019-01-29T01:06:38.966Z,77.76
2019-01-29T01:07:14.360Z,77.83
2019-01-29T01:07:49.834Z,77.93
2019-01-29T01:08:25.230Z,77.81
2019-01-29T01:09:00.864Z,77.46
2019-01-29T01:09:36.230Z,77.30
2019-01-29T01:10:13.604Z,77.34
2019-01-29T01:10:49.096Z,77.26
2019-01-29T01:11:24.496Z,77.27
2019-01-29T01:11:59.971Z,77.31
2019-01-29T01:12:35.401Z,77.08
2019-01-29T01:13:10.800Z,76.92
2019-01-29T01:13:46.949Z,76.96
2019-01-29T01:14:22.602Z,77.14
2019-01-29T01:14:57.980Z,77.29
2019-01-29T01:15:33.748Z,77.30
2019-01-29T01:16:09.192Z,77.19
2019-01-29T01:16:44.691Z,77.21
2019-01-29T01:17:20.406Z,77.19
2019-01-29T01:17:56.095Z,77.26
2019-01-29T01:18:31.480Z,77.37
2019-01-29T01:19:07.091Z,77.36
2019-01-29T01:19:42.758Z,77.09
2019-01-29T01:20:18.791Z,77.20
2019-01-29T01:20:54.189Z,77.37
2019-01-29T01:21:30.002Z,77.49
2019-01-29T01:22:05.418Z,77.29
2019-01-29T01:22:40.819Z,77.36
2019-01-29T01:23:16.190Z,77.53
2019-01-29T01:23:51.559Z,77.34
2019-01-29T01:24:26.971Z,77.40
2019-01-29T01:25:02.417Z,77.62
2019-01-29T01:25:37.888Z,77.65
2019-01-29T01:26:13.689Z,77.66
2019-01-29T01:26:49.072Z,77.72
2019-01-29T01:27:24.742Z,77.88
2019-01-29T01:28:00.250Z,77.99
2019-01-29T01:28:35.764Z,78.02
2019-01-29T01:29:11.149Z,77.97
2019-01-29T01:29:46.550Z,77.97
2019-01-29T01:30:22.026Z,77.98
2019-01-29T01:30:57.718Z,78.05
2019-01-29T01:31:33.126Z,78.11
2019-01-29T01:32:08.790Z,78.14
2019-01-29T01:32:44.208Z,78.10
2019-01-29T01:33:19.601Z,78.03
2019-01-29T01:33:54.985Z,78.12
2019-01-29T01:34:30.408Z,78.13
2019-01-29T01:35:06.433Z,78.07
2019-01-29T01:35:42.094Z,78.13
2019-01-29T01:36:17.472Z,78.08
2019-01-29T01:36:53.110Z,78.07
2019-01-29T01:37:28.511Z,78.03
2019-01-29T01:38:04.275Z,78.09
2019-01-29T01:38:39.953Z,78.15
2019-01-29T01:39:15.369Z,78.08
2019-01-29T01:39:51.015Z,77.62
2019-01-29T01:40:26.434Z,77.49
2019-01-29T01:41:01.883Z,77.44
2019-01-29T01:41:37.293Z,77.40
2019-01-29T01:42:12.683Z,77.35
2019-01-29T01:42:48.070Z,77.39
2019-01-29T01:43:23.728Z,77.53
2019-01-29T01:43:59.251Z,77.53
2019-01-29T01:44:34.687Z,77.37
2019-01-29T01:45:10.913Z,77.19
2019-01-29T01:45:46.373Z,77.05
2019-01-29T01:46:22.139Z,77.00
2019-01-29T01:46:57.831Z,76.99
2019-01-29T01:47:33.215Z,77.09
2019-01-29T01:48:08.620Z,77.08
2019-01-29T01:48:44.098Z,77.15
2019-01-29T01:49:19.769Z,77.17
2019-01-29T01:49:55.670Z,77.18
2019-01-29T01:50:31.604Z,77.09
2019-01-29T01:51:06.979Z,77.10
2019-01-29T01:51:42.395Z,77.03
2019-01-29T01:52:18.113Z,76.63
2019-01-29T01:52:59.154Z,76.56
2019-01-29T01:53:30.634Z,76.66
2019-01-29T01:54:06.169Z,76.66
2019-01-29T01:54:41.567Z,76.63
2019-01-29T01:55:18.467Z,76.54
2019-01-29T01:55:54.418Z,76.50
2019-01-29T01:56:29.813Z,76.33
2019-01-29T01:57:05.321Z,76.26
2019-01-29T01:57:41.291Z,75.88
2019-01-29T01:58:16.725Z,75.89
2019-01-29T01:58:52.519Z,76.04
2019-01-29T01:59:27.903Z,76.01
2019-01-29T02:00:03.642Z,75.51
2019-01-29T02:00:39.059Z,75.40
2019-01-29T02:01:14.896Z,75.63
2019-01-29T02:01:50.760Z,75.73
2019-01-29T02:02:26.159Z,75.71
2019-01-29T02:03:01.949Z,75.72
2019-01-29T02:03:37.572Z,75.88
2019-01-29T02:04:12.962Z,76.04
2019-01-29T02:04:48.612Z,76.05
2019-01-29T02:05:24.078Z,76.10
2019-01-29T02:05:59.512Z,75.93
2019-01-29T02:06:34.890Z,75.81
2019-01-29T02:07:10.269Z,75.72
2019-01-29T02:07:45.828Z,75.73
2019-01-29T02:08:21.242Z,75.49
2019-01-29T02:08:56.662Z,75.30
2019-01-29T02:09:32.165Z,75.21
2019-01-29T02:10:19.045Z,75.03
2019-01-29T02:10:54.523Z,75.15
2019-01-29T02:11:30.323Z,75.24
2019-01-29T02:12:05.807Z,75.25
2019-01-29T02:12:41.768Z,75.01
2019-01-29T02:13:17.428Z,75.02
2019-01-29T02:13:53.168Z,74.96
2019-01-29T02:14:28.628Z,74.74
2019-01-29T02:15:04.737Z,74.72
2019-01-29T02:15:40.137Z,74.92
2019-01-29T02:16:15.536Z,75.06
2019-01-29T02:16:51.090Z,75.11
2019-01-29T02:17:26.528Z,74.93
2019-01-29T02:18:02.258Z,74.70
2019-01-29T02:18:37.898Z,74.72
2019-01-29T02:19:13.872Z,74.65
2019-01-29T02:19:49.527Z,74.69
2019-01-29T02:20:25.320Z,74.76
2019-01-29T02:21:00.751Z,74.71
2019-01-29T02:21:36.389Z,74.48
2019-01-29T02:22:11.774Z,74.37
2019-01-29T02:22:47.179Z,74.19
2019-01-29T02:23:22.628Z,74.36
2019-01-29T02:23:58.378Z,74.21
2019-01-29T02:24:33.997Z,74.12
2019-01-29T02:25:09.861Z,74.09
2019-01-29T02:25:45.480Z,74.20
2019-01-29T02:26:20.912Z,74.04
2019-01-29T02:26:56.433Z,73.53
2019-01-29T02:27:31.935Z,73.25
2019-01-29T02:28:07.323Z,73.16
2019-01-29T02:28:42.993Z,72.95
2019-01-29T02:29:18.409Z,73.03
2019-01-29T02:29:54.207Z,73.17
2019-01-29T02:30:29.754Z,73.32
2019-01-29T02:31:05.412Z,73.19
2019-01-29T02:31:40.773Z,72.84
2019-01-29T02:32:16.157Z,72.95
2019-01-29T02:32:51.602Z,73.00
2019-01-29T02:33:27.349Z,72.99
2019-01-29T02:34:02.802Z,72.94
2019-01-29T02:34:38.208Z,72.66
2019-01-29T02:35:13.727Z,72.38
2019-01-29T02:35:49.464Z,72.07
2019-01-29T02:36:25.004Z,71.91
2019-01-29T02:37:00.559Z,71.87
2019-01-29T02:37:36.270Z,71.68
2019-01-29T02:38:12.026Z,71.81
2019-01-29T02:38:48.076Z,71.79
2019-01-29T02:39:23.544Z,71.86
2019-01-29T02:39:59.182Z,71.89
2019-01-29T02:40:34.963Z,72.06
2019-01-29T02:41:10.660Z,72.29
2019-01-29T02:41:46.660Z,72.21
2019-01-29T02:42:22.405Z,72.26
2019-01-29T02:42:58.342Z,72.39
2019-01-29T02:43:34.025Z,72.46
2019-01-29T02:44:09.440Z,72.39
2019-01-29T02:44:45.147Z,72.15
2019-01-29T02:45:21.016Z,72.07
2019-01-29T02:45:56.746Z,72.06
2019-01-29T02:46:32.443Z,72.05
2019-01-29T02:47:07.866Z,72.14
2019-01-29T02:47:43.309Z,72.20
2019-01-29T02:48:18.979Z,72.18
2019-01-29T02:48:54.872Z,72.30
2019-01-29T02:49:30.314Z,72.22
2019-01-29T02:50:06.808Z,72.35
2019-01-29T02:50:42.506Z,72.32
2019-01-29T02:51:18.122Z,72.56
2019-01-29T02:51:53.563Z,72.72
2019-01-29T02:52:29.306Z,72.71
2019-01-29T02:53:05.082Z,72.44
2019-01-29T02:53:40.519Z,72.54
2019-01-29T02:54:16.177Z,72.47
2019-01-29T02:54:51.594Z,72.51
2019-01-29T02:55:27.318Z,72.43
2019-01-29T02:56:02.770Z,72.50
2019-01-29T02:56:38.200Z,72.56
2019-01-29T02:57:13.897Z,72.50
2019-01-29T02:57:49.297Z,72.01
2019-01-29T02:58:24.743Z,72.09
2019-01-29T02:59:00.200Z,71.79
2019-01-29T02:59:35.643Z,71.49
2019-01-29T03:00:14.860Z,71.53
2019-01-29T03:00:50.279Z,71.69
2019-01-29T03:01:25.844Z,71.93
2019-01-29T03:02:01.283Z,72.03
2019-01-29T03:02:36.706Z,71.72
2019-01-29T03:03:12.242Z,71.77
2019-01-29T03:03:47.678Z,71.17
2019-01-29T03:04:23.121Z,71.47
2019-01-29T03:04:58.847Z,71.92
2019-01-29T03:05:34.516Z,72.43
2019-01-29T03:06:10.307Z,72.63
2019-01-29T03:06:45.715Z,72.59
2019-01-29T03:07:21.233Z,72.81
2019-01-29T03:07:56.752Z,72.89
2019-01-29T03:08:32.181Z,72.98
2019-01-29T03:09:09.658Z,73.26
2019-01-29T03:09:45.335Z,73.35
2019-01-29T03:10:22.330Z,73.52
2019-01-29T03:10:57.762Z,73.37
2019-01-29T03:11:34.691Z,73.54
2019-01-29T03:12:10.109Z,73.22
2019-01-29T03:12:45.519Z,73.22
2019-01-29T03:13:20.939Z,73.48
2019-01-29T03:13:56.467Z,73.66
2019-01-29T03:14:31.957Z,73.64
2019-01-29T03:15:09.128Z,73.61
2019-01-29T03:15:44.546Z,73.38
2019-01-29T03:16:19.963Z,73.29
2019-01-29T03:16:55.427Z,73.47
2019-01-29T03:17:30.894Z,73.71
2019-01-29T03:18:06.412Z,73.78
2019-01-29T03:18:41.851Z,73.90
2019-01-29T03:19:17.268Z,73.98
2019-01-29T03:19:53.343Z,74.12
2019-01-29T03:20:28.816Z,73.92
2019-01-29T03:21:04.362Z,73.96
2019-01-29T03:21:39.774Z,74.07
2019-01-29T03:22:15.200Z,74.13
2019-01-29T03:22:50.610Z,74.09
2019-01-29T03:23:27.432Z,73.68
2019-01-29T03:24:03.419Z,73.83
2019-01-29T03:24:38.831Z,73.60
2019-01-29T03:25:14.262Z,73.63
2019-01-29T03:25:50.239Z,73.78
2019-01-29T03:26:25.710Z,73.80
2019-01-29T03:27:01.139Z,73.78
2019-01-29T03:27:36.839Z,73.88
2019-01-29T03:28:12.542Z,73.93
2019-01-29T03:28:48.282Z,73.97
2019-01-29T03:29:23.735Z,73.77
2019-01-29T03:29:59.239Z,73.81
2019-01-29T03:30:34.674Z,74.01
2019-01-29T03:31:10.112Z,73.85
2019-01-29T03:31:45.755Z,73.93
2019-01-29T03:32:21.184Z,74.00
2019-01-29T03:32:56.970Z,73.75
2019-01-29T03:33:32.761Z,73.60
2019-01-29T03:34:08.313Z,73.62
2019-01-29T03:34:43.746Z,73.31
2019-01-29T03:35:19.261Z,73.49
2019-01-29T03:35:54.695Z,73.62
2019-01-29T03:36:30.177Z,73.33
2019-01-29T03:37:05.854Z,73.42
2019-01-29T03:37:41.367Z,73.68
2019-01-29T03:38:16.781Z,73.66
2019-01-29T03:38:52.206Z,73.42
2019-01-29T03:39:28.320Z,73.17
2019-01-29T03:40:04.375Z,73.27
2019-01-29T03:40:39.789Z,73.49
2019-01-29T03:41:15.211Z,73.58
2019-01-29T03:41:50.858Z,73.62
2019-01-29T03:42:26.325Z,73.34
2019-01-29T03:43:01.765Z,72.94
2019-01-29T03:43:37.187Z,72.63
2019-01-29T03:44:12.638Z,72.84
2019-01-29T03:44:48.058Z,72.99
2019-01-29T03:45:23.531Z,72.94
2019-01-29T03:45:59.256Z,73.07
2019-01-29T03:46:34.797Z,72.89
2019-01-29T03:47:10.206Z,72.94
2019-01-29T03:47:45.867Z,73.16
2019-01-29T03:48:21.415Z,73.37
2019-01-29T03:48:56.882Z,73.44
2019-01-29T03:49:34.216Z,73.31
2019-01-29T03:50:10.388Z,73.16
2019-01-29T03:50:46.067Z,73.53
2019-01-29T03:51:22.009Z,73.56
2019-01-29T03:51:57.484Z,73.86
2019-01-29T03:52:33.221Z,73.62
2019-01-29T03:53:08.922Z,73.75
2019-01-29T03:53:44.338Z,73.73
2019-01-29T03:54:19.859Z,73.56
2019-01-29T03:54:55.581Z,73.64
2019-01-29T03:55:31.130Z,73.53
2019-01-29T03:56:06.543Z,73.34
2019-01-29T03:56:42.221Z,73.25
2019-01-29T03:57:17.636Z,73.30
2019-01-29T03:57:53.080Z,73.30
2019-01-29T03:58:28.547Z,73.18
2019-01-29T03:59:04.680Z,73.05
2019-01-29T03:59:40.157Z,72.71
2019-01-29T04:00:17.658Z,72.76
2019-01-29T04:00:53.096Z,72.69
2019-01-29T04:01:28.846Z,72.83
2019-01-29T04:02:04.717Z,73.01
2019-01-29T04:02:40.148Z,72.89
2019-01-29T04:03:15.583Z,73.01
2019-01-29T04:03:51.014Z,72.96
2019-01-29T04:04:26.490Z,72.52
2019-01-29T04:05:01.941Z,72.39
2019-01-29T04:05:37.441Z,72.48
2019-01-29T04:06:12.879Z,72.65
2019-01-29T04:06:48.291Z,72.72
2019-01-29T04:07:23.791Z,72.88
2019-01-29T04:07:59.238Z,73.09
2019-01-29T04:08:34.921Z,73.19
2019-01-29T04:09:10.631Z,73.32
2019-01-29T04:09:46.149Z,73.36
2019-01-29T04:10:21.865Z,73.42
2019-01-29T04:10:57.392Z,73.73
2019-01-29T04:11:32.827Z,74.02
2019-01-29T04:12:08.261Z,74.14
2019-01-29T04:12:43.688Z,73.94
2019-01-29T04:13:19.123Z,73.88
2019-01-29T04:13:54.647Z,73.84
2019-01-29T04:14:30.105Z,73.97
2019-01-29T04:15:07.497Z,74.17
2019-01-29T04:15:43.392Z,74.18
2019-01-29T04:16:18.818Z,73.94
2019-01-29T04:16:54.384Z,74.21
2019-01-29T04:17:29.827Z,74.45
2019-01-29T04:18:05.329Z,74.32
2019-01-29T04:18:41.080Z,74.37
2019-01-29T04:19:16.566Z,74.43
2019-01-29T04:19:52.066Z,74.48
2019-01-29T04:20:27.914Z,74.47
2019-01-29T04:21:03.333Z,74.60
2019-01-29T04:21:38.773Z,74.73
2019-01-29T04:22:14.249Z,74.80
2019-01-29T04:22:49.758Z,74.66
2019-01-29T04:23:25.460Z,74.56
2019-01-29T04:24:00.982Z,74.51
2019-01-29T04:24:36.537Z,74.32
2019-01-29T04:25:12.632Z,74.28
2019-01-29T04:25:50.263Z,74.37
2019-01-29T04:26:25.682Z,74.47
2019-01-29T04:27:01.351Z,74.48
2019-01-29T04:27:37.095Z,74.59
2019-01-29T04:28:12.556Z,74.27
2019-01-29T04:28:48.003Z,74.41
2019-01-29T04:29:23.415Z,74.33
2019-01-29T04:29:58.869Z,74.36
2019-01-29T04:30:34.561Z,74.45
2019-01-29T04:31:10.032Z,74.47
2019-01-29T04:31:45.726Z,74.69
2019-01-29T04:32:21.141Z,74.54
2019-01-29T04:32:56.552Z,74.40
2019-01-29T04:33:32.257Z,74.06
2019-01-29T04:34:07.790Z,74.02
2019-01-29T04:34:43.524Z,74.19
2019-01-29T04:35:18.926Z,74.38
2019-01-29T04:35:54.347Z,74.50
2019-01-29T04:36:29.777Z,74.58
2019-01-29T04:37:05.210Z,74.57
2019-01-29T04:37:40.908Z,74.59
2019-01-29T04:38:16.375Z,74.68
2019-01-29T04:38:51.793Z,74.48
2019-01-29T04:39:27.313Z,74.54
2019-01-29T04:40:03.033Z,74.78
2019-01-29T04:40:38.753Z,74.72
2019-01-29T04:41:14.269Z,74.33
2019-01-29T04:41:49.699Z,74.40
2019-01-29T04:42:25.193Z,74.23
2019-01-29T04:43:00.890Z,74.57
2019-01-29T04:43:36.567Z,74.80
2019-01-29T04:44:12.048Z,74.92
2019-01-29T04:44:47.567Z,74.98
2019-01-29T04:45:23.003Z,75.11
2019-01-29T04:45:58.713Z,74.87
2019-01-29T04:46:34.131Z,74.55
2019-01-29T04:47:09.600Z,74.40
2019-01-29T04:47:45.339Z,74.38
2019-01-29T04:48:21.354Z,74.44
2019-01-29T04:48:56.771Z,74.36
2019-01-29T04:49:32.213Z,73.99
2019-01-29T04:50:09.113Z,73.98
2019-01-29T04:50:44.575Z,74.19
2019-01-29T04:51:20.191Z,73.96
2019-01-29T04:51:55.608Z,74.12
2019-01-29T04:52:31.035Z,74.33
2019-01-29T04:53:06.540Z,74.53
2019-01-29T04:53:41.959Z,74.36
2019-01-29T04:54:17.694Z,74.48
2019-01-29T04:54:53.127Z,74.39
2019-01-29T04:55:28.541Z,74.25
2019-01-29T04:56:04.051Z,74.23
2019-01-29T04:56:39.605Z,74.41
2019-01-29T04:57:15.059Z,74.52
2019-01-29T04:57:50.582Z,74.60
2019-01-29T04:58:26.012Z,74.69
2019-01-29T04:59:01.451Z,74.69
2019-01-29T04:59:37.147Z,74.34
2019-01-29T05:00:15.249Z,74.56
2019-01-29T05:00:50.670Z,74.44
2019-01-29T05:01:26.093Z,74.70
2019-01-29T05:02:01.523Z,75.02
2019-01-29T05:02:36.948Z,75.15
2019-01-29T05:03:12.401Z,75.36
2019-01-29T05:03:48.172Z,75.34
2019-01-29T05:04:23.592Z,75.37
2019-01-29T05:04:59.062Z,75.40
2019-01-29T05:05:34.763Z,75.32
2019-01-29T05:06:10.528Z,75.30
2019-01-29T05:06:45.994Z,75.00
2019-01-29T05:07:21.411Z,75.14
2019-01-29T05:07:56.923Z,75.36
2019-01-29T05:08:32.338Z,75.49
2019-01-29T05:09:09.212Z,75.49
2019-01-29T05:09:44.648Z,75.40
2019-01-29T05:10:20.216Z,75.42
2019-01-29T05:10:55.745Z,75.42
2019-01-29T05:11:31.159Z,75.40
2019-01-29T05:12:06.847Z,75.40
2019-01-29T05:12:42.342Z,75.44
2019-01-29T05:13:17.901Z,75.55
2019-01-29T05:13:53.374Z,75.64
2019-01-29T05:14:28.881Z,75.26
2019-01-29T05:15:04.917Z,75.33
2019-01-29T05:15:40.660Z,75.56
2019-01-29T05:16:16.121Z,75.73
2019-01-29T05:16:51.575Z,75.62
2019-01-29T05:17:27.002Z,75.53
2019-01-29T05:18:02.432Z,75.37
2019-01-29T05:18:37.938Z,75.46
2019-01-29T05:19:13.382Z,75.52
2019-01-29T05:19:48.795Z,75.72
2019-01-29T05:20:24.254Z,75.85
2019-01-29T05:20:59.660Z,75.90
2019-01-29T05:21:35.085Z,75.88
2019-01-29T05:22:10.624Z,76.01
2019-01-29T05:22:46.376Z,75.90
2019-01-29T05:23:21.826Z,75.92
2019-01-29T05:24:06.456Z,75.68
2019-01-29T05:24:34.337Z,75.62
2019-01-29T05:25:10.380Z,75.96
2019-01-29T05:25:46.137Z,75.77
2019-01-29T05:26:21.948Z,75.67
2019-01-29T05:26:57.628Z,75.67
2019-01-29T05:27:33.070Z,75.96
2019-01-29T05:28:08.557Z,76.16
2019-01-29T05:28:44.033Z,76.39
2019-01-29T05:29:19.800Z,76.32
2019-01-29T05:29:55.283Z,76.30
2019-01-29T05:30:30.737Z,76.37
2019-01-29T05:31:06.168Z,76.13
2019-01-29T05:31:41.805Z,76.20
2019-01-29T05:32:17.237Z,76.03
2019-01-29T05:32:52.665Z,76.01
2019-01-29T05:33:28.073Z,76.18
2019-01-29T05:34:03.752Z,76.07
2019-01-29T05:34:39.282Z,76.26
2019-01-29T05:35:14.894Z,76.24
2019-01-29T05:35:50.662Z,76.07
2019-01-29T05:36:26.089Z,76.10
2019-01-29T05:37:01.518Z,76.29
2019-01-29T05:37:37.675Z,76.30
2019-01-29T05:38:13.112Z,76.44
2019-01-29T05:38:48.673Z,76.46
2019-01-29T05:39:24.409Z,76.52
2019-01-29T05:40:00.270Z,76.45
2019-01-29T05:40:35.711Z,76.49
2019-01-29T05:41:11.140Z,76.54
2019-01-29T05:41:47.177Z,76.71
2019-01-29T05:42:22.622Z,76.70
2019-01-29T05:42:58.276Z,76.76
2019-01-29T05:43:33.767Z,76.91
2019-01-29T05:44:09.205Z,77.05
2019-01-29T05:44:44.676Z,77.09
2019-01-29T05:45:21.101Z,76.81
2019-01-29T05:45:56.562Z,76.82
2019-01-29T05:46:31.963Z,76.89
2019-01-29T05:47:07.728Z,76.95
2019-01-29T05:47:43.361Z,76.89
2019-01-29T05:48:19.230Z,76.81
2019-01-29T05:48:54.732Z,76.81
2019-01-29T05:49:30.139Z,76.64
2019-01-29T05:50:06.733Z,76.70
2019-01-29T05:50:42.336Z,76.69
2019-01-29T05:51:18.172Z,76.79
2019-01-29T05:51:53.588Z,76.83
2019-01-29T05:52:29.026Z,76.68
2019-01-29T05:53:04.556Z,76.43
2019-01-29T05:53:40.298Z,76.16
2019-01-29T05:54:16.598Z,75.91
2019-01-29T05:54:52.189Z,75.68
2019-01-29T05:55:27.606Z,75.60
2019-01-29T05:56:03.147Z,75.72
2019-01-29T05:56:38.921Z,75.83
2019-01-29T05:57:14.371Z,75.81
2019-01-29T05:57:49.918Z,75.85
2019-01-29T05:58:25.337Z,76.11
2019-01-29T05:59:00.762Z,76.06
2019-01-29T05:59:36.502Z,76.12
2019-01-29T06:00:15.209Z,76.16
2019-01-29T06:00:50.691Z,76.21
2019-01-29T06:01:26.387Z,76.22
2019-01-29T06:02:01.792Z,76.21
2019-01-29T06:02:37.217Z,76.25
2019-01-29T06:03:12.648Z,76.28
2019-01-29T06:03:48.468Z,76.24
2019-01-29T06:04:23.913Z,76.18
2019-01-29T06:04:59.340Z,75.86
2019-01-29T06:05:34.772Z,75.81
2019-01-29T06:06:10.335Z,76.05
2019-01-29T06:06:45.984Z,76.12
2019-01-29T06:07:21.437Z,76.17
2019-01-29T06:07:57.169Z,76.05
2019-01-29T06:08:32.875Z,75.90
2019-01-29T06:09:09.410Z,75.91
2019-01-29T06:09:45.283Z,75.86
2019-01-29T06:10:20.820Z,75.95
2019-01-29T06:10:56.223Z,75.91
2019-01-29T06:11:31.974Z,75.71
2019-01-29T06:12:07.630Z,75.65
2019-01-29T06:12:43.007Z,75.73
2019-01-29T06:13:18.678Z,75.82
2019-01-29T06:13:54.096Z,75.80
2019-01-29T06:14:29.870Z,75.84
2019-01-29T06:15:06.832Z,75.92
2019-01-29T06:15:42.249Z,76.12
2019-01-29T06:16:17.675Z,76.24
2019-01-29T06:16:53.376Z,76.39
2019-01-29T06:17:29.088Z,76.08
2019-01-29T06:18:04.784Z,75.91
2019-01-29T06:18:40.132Z,76.05
2019-01-29T06:19:15.534Z,75.90
2019-01-29T06:19:50.977Z,75.86
2019-01-29T06:20:27.286Z,75.82
2019-01-29T06:21:02.747Z,76.18
2019-01-29T06:21:38.146Z,76.33
2019-01-29T06:22:13.538Z,76.44
2019-01-29T06:22:49.004Z,76.46
2019-01-29T06:23:24.467Z,76.63
2019-01-29T06:23:59.913Z,76.70
2019-01-29T06:24:35.381Z,76.73
2019-01-29T06:25:10.778Z,76.75
2019-01-29T06:25:46.148Z,76.71
2019-01-29T06:26:21.683Z,76.46
2019-01-29T06:26:57.119Z,76.28
2019-01-29T06:27:32.821Z,76.34
2019-01-29T06:28:08.476Z,76.54
2019-01-29T06:28:43.879Z,76.65
2019-01-29T06:29:19.543Z,76.61
2019-01-29T06:29:55.071Z,76.60
2019-01-29T06:30:30.512Z,76.75
2019-01-29T06:31:05.918Z,76.73
2019-01-29T06:31:41.342Z,76.82
2019-01-29T06:32:16.973Z,76.68
2019-01-29T06:32:52.731Z,76.60
2019-01-29T06:33:28.425Z,76.73
2019-01-29T06:34:04.086Z,76.87
2019-01-29T06:34:39.472Z,77.11
2019-01-29T06:35:16.022Z,77.10
2019-01-29T06:35:51.729Z,77.18
2019-01-29T06:36:27.211Z,77.21
2019-01-29T06:37:02.602Z,77.19
2019-01-29T06:37:38.025Z,77.15
2019-01-29T06:38:13.413Z,77.05
2019-01-29T06:38:49.097Z,77.03
2019-01-29T06:39:24.587Z,77.08
2019-01-29T06:40:00.391Z,76.79
2019-01-29T06:40:35.911Z,76.69
2019-01-29T06:41:11.319Z,76.83
2019-01-29T06:41:46.785Z,76.75
2019-01-29T06:42:22.252Z,76.88
2019-01-29T06:42:57.947Z,77.02
2019-01-29T06:43:33.373Z,77.10
2019-01-29T06:44:08.773Z,77.22
2019-01-29T06:44:44.171Z,77.24
2019-01-29T06:45:20.504Z,77.28
2019-01-29T06:45:56.280Z,77.16
2019-01-29T06:46:31.752Z,77.00
2019-01-29T06:47:07.191Z,77.13
2019-01-29T06:47:42.855Z,77.23
2019-01-29T06:48:18.247Z,77.01
2019-01-29T06:48:54.001Z,76.89
2019-01-29T06:49:29.456Z,76.88
2019-01-29T06:50:06.209Z,76.85
2019-01-29T06:50:41.642Z,76.69
2019-01-29T06:51:17.053Z,76.81
2019-01-29T06:51:52.549Z,76.95
2019-01-29T06:52:27.986Z,76.86
2019-01-29T06:53:03.387Z,76.87
2019-01-29T06:53:38.778Z,76.92
2019-01-29T06:54:14.194Z,76.85
2019-01-29T06:54:49.587Z,76.75
2019-01-29T06:55:25.958Z,76.61
2019-01-29T06:56:01.668Z,76.58
2019-01-29T06:56:37.083Z,76.35
2019-01-29T06:57:12.761Z,75.91
2019-01-29T06:57:54.995Z,75.62
2019-01-29T06:58:25.386Z,75.76
2019-01-29T06:59:00.811Z,75.96
2019-01-29T06:59:36.245Z,76.12
2019-01-29T07:00:17.642Z,76.09
2019-01-29T07:00:53.025Z,76.02
2019-01-29T07:01:28.605Z,75.87
2019-01-29T07:02:04.245Z,75.33
2019-01-29T07:02:39.975Z,74.98
2019-01-29T07:03:15.541Z,74.73
2019-01-29T07:03:50.962Z,75.04
2019-01-29T07:04:26.628Z,75.30
2019-01-29T07:05:02.360Z,75.54
2019-01-29T07:05:37.773Z,75.67
2019-01-29T07:06:13.185Z,75.68
2019-01-29T07:06:48.854Z,75.83
2019-01-29T07:07:26.003Z,75.93
2019-01-29T07:08:01.695Z,75.85
2019-01-29T07:08:37.080Z,75.87
2019-01-29T07:09:12.464Z,75.74
2019-01-29T07:09:47.956Z,75.88
2019-01-29T07:10:23.770Z,75.56
2019-01-29T07:10:59.453Z,75.26
2019-01-29T07:11:34.854Z,75.05
2019-01-29T07:12:10.268Z,75.16
2019-01-29T07:12:46.037Z,75.13
2019-01-29T07:13:21.718Z,74.96
2019-01-29T07:13:57.185Z,75.19
2019-01-29T07:14:32.713Z,75.40
2019-01-29T07:15:11.052Z,75.52
2019-01-29T07:16:04.151Z,75.42
2019-01-29T07:16:58.533Z,75.22
2019-01-29T07:17:36.196Z,74.99
2019-01-29T07:18:20.622Z,75.03
2019-01-29T07:19:13.901Z,75.15
2019-01-29T07:19:51.609Z,75.34
2019-01-29T07:20:27.449Z,75.43
2019-01-29T07:21:04.760Z,75.62
2019-01-29T07:21:40.195Z,75.56
2019-01-29T07:22:15.593Z,75.51
2019-01-29T07:22:51.023Z,75.49
2019-01-29T07:23:26.491Z,75.41
2019-01-29T07:24:01.914Z,75.16
2019-01-29T07:24:42.651Z,74.83
2019-01-29T07:25:14.673Z,74.62
2019-01-29T07:25:50.052Z,74.62
2019-01-29T07:26:25.815Z,74.95
2019-01-29T07:27:01.643Z,75.21
2019-01-29T07:27:37.041Z,75.37
2019-01-29T07:28:13.454Z,75.17
2019-01-29T07:28:49.194Z,75.07
2019-01-29T07:29:24.644Z,75.15
2019-01-29T07:30:00.286Z,75.12
2019-01-29T07:30:35.783Z,75.13
2019-01-29T07:31:11.193Z,74.99
2019-01-29T07:31:46.666Z,74.78
2019-01-29T07:32:22.095Z,74.71
2019-01-29T07:32:57.572Z,74.88
2019-01-29T07:33:32.977Z,74.93
2019-01-29T07:34:08.389Z,74.85
2019-01-29T07:34:43.812Z,74.64
2019-01-29T07:35:19.196Z,74.77
2019-01-29T07:35:54.854Z,74.70
2019-01-29T07:36:30.284Z,74.59
2019-01-29T07:37:05.836Z,74.59
2019-01-29T07:37:41.251Z,74.46
2019-01-29T07:38:16.626Z,74.51
2019-01-29T07:38:52.024Z,74.29
2019-01-29T07:39:27.458Z,74.30
2019-01-29T07:40:02.928Z,74.25
2019-01-29T07:40:38.343Z,73.92